Time;durP1;ratioP1;P1;durP2;ratioP2;P2;SDS_P1;SDS_P2;PMS_P1;PMS_P2;Temp;Humidity;BMP_temperature;BMP_pressure;BME280_temperature;BME280_humidity;BME280_pressure;Samples;Min_cycle;Max_cycle;Signal;HPM_P1;HPM_P2
2023/02/20 00:00:52;;;;;;;9.23;3.50;;;;;;;-145.69;100.00;52515.69;5134475;27;20225;-82
2023/02/20 00:03:18;;;;;;;13.23;3.50;;;;;;;-145.69;100.00;52493.91;5134197;27;20204;-81
2023/02/20 00:05:45;;;;;;;11.53;3.50;;;;;;;-145.69;100.00;52472.13;5134572;27;20287;-81
2023/02/20 00:08:14;;;;;;;12.40;3.23;;;;;;;-145.69;100.00;52491.91;5133216;27;20205;-81
2023/02/20 00:10:41;;;;;;;9.33;3.10;;;;;;;-145.69;100.00;52531.53;5134191;27;20193;-82
2023/02/20 00:13:08;;;;;;;8.10;2.87;;;;;;;-145.69;100.00;52491.91;5134445;27;20220;-82
2023/02/20 00:15:35;;;;;;;7.13;3.10;;;;;;;-145.69;100.00;52515.69;5133222;27;20249;-81
2023/02/20 00:18:03;;;;;;;12.23;2.97;;;;;;;-145.69;100.00;52523.59;5134079;27;20200;-81
2023/02/20 00:20:32;;;;;;;8.30;3.00;;;;;;;-145.69;100.00;52495.88;5134261;27;20705;-82
2023/02/20 00:22:58;;;;;;;8.97;3.27;;;;;;;-145.69;100.00;52507.75;5133991;27;20253;-82
2023/02/20 00:25:28;;;;;;;15.77;3.20;;;;;;;-145.69;100.00;52495.88;5134172;27;20206;-82
2023/02/20 00:27:54;;;;;;;12.70;3.60;;;;;;;-145.69;100.00;52523.59;5133660;27;20204;-82
2023/02/20 00:30:23;;;;;;;10.20;3.50;;;;;;;-145.69;100.00;52503.81;5132985;27;20558;-83
2023/02/20 00:32:51;;;;;;;10.13;3.07;;;;;;;-145.69;100.00;52507.75;5134435;27;20200;-82
2023/02/20 00:35:34;;;;;;;10.37;3.50;;;;;;;-145.69;100.00;52495.88;5134012;27;20201;-83
2023/02/20 00:38:00;;;;;;;10.93;3.60;;;;;;;-145.69;100.00;52511.72;5134061;27;20201;-83
2023/02/20 00:40:27;;;;;;;13.33;4.07;;;;;;;-145.69;100.00;52515.69;5134044;27;20228;-83
2023/02/20 00:42:57;;;;;;;7.70;3.13;;;;;;;-145.69;100.00;52523.59;5134187;27;20200;-82
2023/02/20 00:45:29;;;;;;;9.10;3.30;;;;;;;-145.69;100.00;52509.75;5132522;27;20196;-82
2023/02/20 00:47:57;;;;;;;9.00;3.93;;;;;;;-145.69;100.00;52503.81;5134143;27;20232;-83
2023/02/20 00:50:25;;;;;;;7.67;3.40;;;;;;;-145.69;100.00;52501.81;5133820;27;20197;-82
2023/02/20 00:52:52;;;;;;;9.20;3.20;;;;;;;-145.69;100.00;52525.59;5133627;27;20195;-82
2023/02/20 00:55:18;;;;;;;11.67;3.70;;;;;;;-145.69;100.00;52511.72;5133919;27;20559;-81
2023/02/20 00:57:46;;;;;;;13.00;3.70;;;;;;;-145.69;100.00;52501.81;5116205;28;20258;-82
2023/02/20 01:00:20;;;;;;;10.97;3.40;;;;;;;-145.69;100.00;52521.63;5117117;28;20232;-82
2023/02/20 01:02:49;;;;;;;7.83;2.93;;;;;;;-145.69;100.00;52507.75;5117579;28;20292;-82
2023/02/20 01:05:16;;;;;;;12.07;3.77;;;;;;;-145.69;100.00;52507.75;5117203;28;20324;-83
2023/02/20 01:07:44;;;;;;;11.57;3.70;;;;;;;-145.69;100.00;52515.69;5117462;28;20200;-82
2023/02/20 01:10:13;;;;;;;7.70;3.30;;;;;;;-145.69;100.00;52503.81;5117552;28;20207;-82
2023/02/20 01:12:40;;;;;;;13.30;4.03;;;;;;;-145.69;100.00;52491.91;5117413;28;20201;-82
2023/02/20 01:15:08;;;;;;;11.33;3.50;;;;;;;-145.69;100.00;52470.13;5117722;28;20202;-82
2023/02/20 01:17:35;;;;;;;8.87;3.30;;;;;;;-145.69;100.00;52507.75;5116165;28;20205;-84
2023/02/20 01:20:05;;;;;;;10.07;3.30;;;;;;;-145.69;100.00;52499.84;5117315;28;20227;-83
2023/02/20 01:22:31;;;;;;;12.10;3.07;;;;;;;-145.69;100.00;52487.97;5124840;27;20193;-84
2023/02/20 01:24:59;;;;;;;13.10;3.07;;;;;;;-145.69;100.00;52511.72;5138209;27;20199;-83
2023/02/20 01:27:25;;;;;;;10.30;3.77;;;;;;;-145.69;100.00;52535.47;5136869;27;20931;-83
2023/02/20 01:29:52;;;;;;;7.87;3.33;;;;;;;-145.69;100.00;52491.91;5137511;27;20193;-79
2023/02/20 01:32:18;;;;;;;11.03;3.80;;;;;;;-145.69;100.00;52505.78;5137820;27;20197;-84
2023/02/20 01:34:45;;;;;;;9.57;3.47;;;;;;;-145.69;100.00;52515.69;5137889;27;20203;-83
2023/02/20 01:37:14;;;;;;;13.50;3.97;;;;;;;-145.69;100.00;52547.38;5137855;27;20223;-84
2023/02/20 01:39:42;;;;;;;8.33;3.30;;;;;;;-145.69;100.00;52539.44;5137323;27;20231;-83
2023/02/20 01:42:27;;;;;;;11.47;3.47;;;;;;;-145.69;100.00;52472.13;5137621;27;20219;-83
2023/02/20 01:45:11;;;;;;;8.60;3.23;;;;;;;-145.69;100.00;52499.84;5137380;27;20207;-84
2023/02/20 01:47:37;;;;;;;10.03;3.00;;;;;;;-145.69;100.00;52509.75;5137044;27;20686;-84
2023/02/20 01:50:08;;;;;;;5.67;2.70;;;;;;;-145.69;100.00;52535.47;5138061;27;20197;-85
2023/02/20 01:52:37;;;;;;;13.17;3.33;;;;;;;-145.69;100.00;52527.56;5137847;27;20197;-84
2023/02/20 01:55:11;;;;;;;7.47;3.27;;;;;;;-145.69;100.00;52497.84;5137616;27;20211;-85
2023/02/20 01:57:48;;;;;;;8.60;3.50;;;;;;;-145.69;100.00;52531.53;5137513;27;20192;-84
2023/02/20 02:00:18;;;;;;;7.40;3.23;;;;;;;-145.69;100.00;52495.88;5137146;27;20273;-84
2023/02/20 02:02:49;;;;;;;10.93;3.43;;;;;;;-145.69;100.00;52503.81;5137358;27;20591;-84
2023/02/20 02:05:21;;;;;;;10.20;3.83;;;;;;;-145.69;100.00;52511.72;5137060;27;20228;-83
2023/02/20 02:07:48;;;;;;;7.37;3.33;;;;;;;-145.69;100.00;52523.59;5136474;27;20564;-84
2023/02/20 02:10:18;;;;;;;9.50;4.20;;;;;;;-145.69;100.00;52511.72;5136621;27;20197;-82
2023/02/20 02:12:51;;;;;;;9.77;3.60;;;;;;;-145.69;100.00;52523.59;5136989;27;20197;-83
2023/02/20 02:15:20;;;;;;;21.27;4.40;;;;;;;-145.69;100.00;52507.75;5136607;27;20199;-83
2023/02/20 02:18:03;;;;;;;11.63;4.13;;;;;;;-145.69;100.00;52531.53;5136563;27;20200;-81
2023/02/20 02:21:01;;;;;;;15.80;4.33;;;;;;;-145.69;100.00;52527.56;5137007;27;20228;-83
2023/02/20 02:24:04;;;;;;;11.73;4.30;;;;;;;-145.69;100.00;52547.38;5136368;27;20555;-83
2023/02/20 02:27:00;;;;;;;8.17;4.10;;;;;;;-145.69;100.00;52541.44;5123144;27;20204;-84
2023/02/20 02:29:48;;;;;;;11.07;3.70;;;;;;;-145.69;100.00;52533.50;5133655;27;20678;-84
2023/02/20 02:32:55;;;;;;;9.90;3.80;;;;;;;-145.69;100.00;52505.78;5136613;27;20193;-83
2023/02/20 02:36:24;;;;;;;12.03;3.67;;;;;;;-145.69;100.00;52527.56;5069640;27;20208;-83
2023/02/20 02:39:00;;;;;;;10.10;3.60;;;;;;;-145.69;100.00;52495.88;4993675;28;20242;-83
2023/02/20 02:41:39;;;;;;;12.03;4.07;;;;;;;-145.69;100.00;52539.44;5025910;28;20211;-83
2023/02/20 02:44:13;;;;;;;16.53;4.23;;;;;;;-145.69;100.00;52555.28;5119019;27;20197;-85
2023/02/20 02:46:42;;;;;;;12.70;5.17;;;;;;;-145.69;100.00;52505.78;5135929;27;20667;-85
2023/02/20 02:49:17;;;;;;;15.63;4.50;;;;;;;-145.69;100.00;52527.56;5135698;27;20200;-84
2023/02/20 02:51:48;;;;;;;13.30;4.73;;;;;;;-145.69;100.00;52535.47;5132874;27;20196;-84
2023/02/20 02:54:19;;;;;;;10.23;3.83;;;;;;;-145.69;100.00;52523.59;5115829;28;20660;-84
2023/02/20 02:56:48;;;;;;;10.40;3.77;;;;;;;-145.69;100.00;52543.41;5115891;28;20205;-84
2023/02/20 02:59:17;;;;;;;9.80;4.00;;;;;;;-145.69;100.00;52581.03;5130065;27;20193;-84
2023/02/20 03:01:51;;;;;;;7.73;3.53;;;;;;;-145.69;100.00;52573.13;5136236;27;20207;-83
2023/02/20 03:04:23;;;;;;;11.83;4.90;;;;;;;-145.69;100.00;52527.56;5136136;27;20225;-83
2023/02/20 03:06:53;;;;;;;10.47;4.13;;;;;;;-145.69;100.00;52551.31;5136290;27;20196;-84
2023/02/20 03:09:29;;;;;;;14.33;4.60;;;;;;;-145.69;100.00;52559.25;5135826;27;20670;-83
2023/02/20 03:11:58;;;;;;;18.90;5.40;;;;;;;-145.69;100.00;52557.28;5135695;27;20205;-83
2023/02/20 03:17:21;;;;;;;17.40;4.97;;;;;;;-145.69;100.00;52533.50;5135647;27;20196;-83
2023/02/20 03:19:51;;;;;;;10.63;4.30;;;;;;;-145.69;100.00;52507.75;5135813;27;20220;-83
2023/02/20 03:22:25;;;;;;;17.97;5.03;;;;;;;-145.69;100.00;52551.31;5134316;27;20189;-83
2023/02/20 03:25:12;;;;;;;12.37;4.83;;;;;;;-145.69;100.00;52545.38;5135627;27;20196;-83
2023/02/20 03:27:44;;;;;;;9.93;4.90;;;;;;;-145.69;100.00;52541.44;5135176;27;20192;-83
2023/02/20 03:30:21;;;;;;;11.40;4.67;;;;;;;-145.69;100.00;52557.28;5135512;27;20207;-83
2023/02/20 03:44:04;;;;;;;12.53;4.60;;;;;;;-145.69;100.00;52525.59;5135016;27;20199;-83
2023/02/20 03:46:36;;;;;;;8.33;3.97;;;;;;;-145.69;100.00;52571.13;5135198;27;20204;-83
2023/02/20 03:49:06;;;;;;;8.17;3.63;;;;;;;-145.69;100.00;52557.28;5134974;27;20197;-82
2023/02/20 03:51:33;;;;;;;14.30;4.40;;;;;;;-145.69;100.00;52585.00;5134726;27;20197;-81
2023/02/20 03:54:00;;;;;;;15.80;4.27;;;;;;;-145.69;100.00;52547.38;5134486;27;20560;-82
2023/02/20 03:56:32;;;;;;;13.87;5.03;;;;;;;-145.69;100.00;52557.28;5134482;27;20287;-81
2023/02/20 03:59:06;;;;;;;11.53;3.90;;;;;;;-145.69;100.00;52559.25;5134841;27;20257;-83
2023/02/20 04:01:35;;;;;;;9.53;3.83;;;;;;;-145.69;100.00;52547.38;5134407;27;20224;-83
2023/02/20 04:04:04;;;;;;;9.23;3.67;;;;;;;-145.69;100.00;52571.13;5134827;27;20234;-85
2023/02/20 04:06:34;;;;;;;15.00;4.40;;;;;;;-145.69;100.00;52533.50;5135233;27;20643;-84
2023/02/20 04:09:05;;;;;;;16.00;4.30;;;;;;;-145.69;100.00;52549.34;5135527;27;20299;-84
2023/02/20 04:11:39;;;;;;;9.97;3.83;;;;;;;-145.69;100.00;52525.59;5135363;27;20201;-84
2023/02/20 04:14:06;;;;;;;12.93;4.40;;;;;;;-145.69;100.00;52579.06;5135006;27;20651;-84
2023/02/20 04:16:43;;;;;;;15.90;4.80;;;;;;;-145.69;100.00;52551.31;5134986;27;20231;-84
2023/02/20 04:19:10;;;;;;;21.40;4.83;;;;;;;-145.69;100.00;52551.31;5135415;27;20203;-85
2023/02/20 04:21:41;;;;;;;15.27;5.10;;;;;;;-145.69;100.00;52531.53;5134840;27;20225;-84
2023/02/20 04:24:11;;;;;;;21.07;4.93;;;;;;;-145.69;100.00;52537.47;5134625;27;20280;-84
2023/02/20 04:26:39;;;;;;;10.93;4.77;;;;;;;-145.69;100.00;52575.09;5135122;27;20208;-84
2023/02/20 04:29:07;;;;;;;16.53;5.17;;;;;;;-145.69;100.00;52541.44;5135072;27;20657;-84
2023/02/20 04:31:33;;;;;;;9.70;4.73;;;;;;;-145.69;100.00;52559.25;5134457;27;20235;-84
2023/02/20 04:34:02;;;;;;;16.27;4.77;;;;;;;-145.69;100.00;52567.16;5134915;27;20200;-84
2023/02/20 04:36:28;;;;;;;12.43;5.07;;;;;;;-145.69;100.00;52583.00;5134934;27;20196;-84
2023/02/20 04:38:58;;;;;;;19.53;5.37;;;;;;;-145.69;100.00;52573.13;5134648;27;20199;-84
2023/02/20 04:41:24;;;;;;;11.67;5.10;;;;;;;-145.69;100.00;52563.22;5134431;27;20228;-84
2023/02/20 04:44:29;;;;;;;22.33;5.30;;;;;;;-145.69;100.00;52569.16;5134254;27;20196;-84
2023/02/20 04:46:44;;;;;;;16.73;5.20;;;;;;;-145.69;100.00;52586.97;5118626;27;20748;-84
2023/02/20 04:49:12;;;;;;;17.57;6.20;;;;;;;-145.69;100.00;52553.31;5113999;28;20736;-83
2023/02/20 04:51:39;;;;;;;18.03;5.63;;;;;;;-145.69;100.00;52557.28;5113625;28;20201;-84
2023/02/20 04:54:06;;;;;;;15.10;6.27;;;;;;;-145.69;100.00;52563.22;5132935;27;20200;-83
2023/02/20 04:56:35;;;;;;;16.50;5.53;;;;;;;-145.69;100.00;52579.06;5134164;27;20551;-84
2023/02/20 04:59:03;;;;;;;12.63;5.10;;;;;;;-145.69;100.00;52547.38;5134236;28;20559;-83
2023/02/20 05:01:32;;;;;;;12.30;5.77;;;;;;;-145.69;100.00;52561.22;5134363;28;20339;-83
2023/02/20 05:03:59;;;;;;;17.53;6.30;;;;;;;-145.69;100.00;52571.13;5134091;28;20228;-84
2023/02/20 05:06:25;;;;;;;26.90;6.50;;;;;;;-145.69;100.00;52575.09;5133992;28;20211;-83
2023/02/20 05:08:52;;;;;;;13.23;5.87;;;;;;;-145.69;100.00;52553.31;5134017;27;20197;-84
2023/02/20 05:11:21;;;;;;;13.27;5.60;;;;;;;-145.69;100.00;52598.84;5134534;28;20199;-85
2023/02/20 05:13:48;;;;;;;12.40;4.90;;;;;;;-145.69;100.00;52567.16;5134999;27;20204;-85
2023/02/20 05:16:16;;;;;;;10.77;4.50;;;;;;;-145.69;100.00;52557.28;5135345;28;20196;-85
2023/02/20 05:18:42;;;;;;;12.77;5.03;;;;;;;-145.69;100.00;52588.97;5134486;27;20197;-85
2023/02/20 05:23:57;;;;;;;15.17;6.03;;;;;;;-145.69;100.00;52573.13;5134919;28;20661;-85
2023/02/20 05:26:24;;;;;;;17.00;6.67;;;;;;;-145.69;100.00;52596.88;5135314;28;20212;-86
2023/02/20 05:28:50;;;;;;;21.37;6.27;;;;;;;-145.69;100.00;52541.44;5135233;28;20212;-85
2023/02/20 05:31:22;;;;;;;18.37;6.33;;;;;;;-145.69;100.00;52567.16;5136158;28;20205;-85
2023/02/20 05:33:56;;;;;;;19.30;6.70;;;;;;;-145.69;100.00;52557.28;5134536;28;20647;-84
2023/02/20 05:36:22;;;;;;;21.63;6.27;;;;;;;-145.69;100.00;52626.59;5134432;27;20277;-84
2023/02/20 05:38:49;;;;;;;23.53;6.33;;;;;;;-145.69;100.00;52537.47;5134382;27;20197;-84
2023/02/20 05:41:15;;;;;;;22.07;5.60;;;;;;;-145.69;100.00;52551.31;5134103;27;20228;-84
2023/02/20 05:43:42;;;;;;;16.07;5.80;;;;;;;-145.69;100.00;52555.28;5134085;27;20245;-84
2023/02/20 05:46:08;;;;;;;18.90;6.30;;;;;;;-145.69;100.00;52563.22;5137096;27;20275;-83
2023/02/20 05:48:36;;;;;;;16.57;6.07;;;;;;;-145.69;100.00;52555.28;5137645;27;20204;-83
2023/02/20 05:51:03;;;;;;;19.03;6.33;;;;;;;-145.69;100.00;52563.22;5137733;27;20204;-83
2023/02/20 05:53:32;;;;;;;21.87;6.10;;;;;;;-145.69;100.00;52559.25;5137570;27;20199;-83
2023/02/20 05:55:59;;;;;;;21.27;7.65;;;;;;;-145.69;100.00;52551.31;5116372;28;20442;-84
2023/02/20 05:58:26;;;;;;;21.00;5.80;;;;;;;-145.69;100.00;52586.97;5117143;28;20219;-83
2023/02/20 06:00:52;;;;;;;20.40;5.67;;;;;;;-145.69;100.00;52565.19;5117060;28;20308;-85
2023/02/20 06:03:19;;;;;;;26.60;5.60;;;;;;;-145.69;100.00;52583.00;5116918;28;20242;-84
2023/02/20 06:05:47;;;;;;;12.90;5.40;;;;;;;-145.69;100.00;52600.84;5116876;28;20208;-85
2023/02/20 06:08:13;;;;;;;19.83;5.00;;;;;;;-145.69;100.00;52555.28;5117116;28;20194;-84
2023/02/20 06:10:40;;;;;;;14.33;4.90;;;;;;;-145.69;100.00;52573.13;5117293;28;20212;-84
2023/02/20 06:13:06;;;;;;;17.80;4.93;;;;;;;-145.69;100.00;52624.59;5117686;28;20205;-86
2023/02/20 06:15:33;;;;;;;15.93;5.13;;;;;;;-145.69;100.00;52581.03;5120251;27;20200;-85
2023/02/20 06:17:59;;;;;;;11.30;4.47;;;;;;;-145.69;100.00;52551.31;5137802;27;20562;-85
2023/02/20 06:20:26;;;;;;;15.37;4.90;;;;;;;-145.69;100.00;52579.06;5138680;27;20663;-85
2023/02/20 06:22:53;;;;;;;14.30;4.70;;;;;;;-145.69;100.00;52557.28;5138763;27;20197;-85
2023/02/20 06:25:23;;;;;;;12.27;4.63;;;;;;;-145.69;100.00;52596.88;5137968;27;20212;-85
2023/02/20 06:27:49;;;;;;;10.63;4.37;;;;;;;-145.69;100.00;52579.06;5137356;27;20201;-84
2023/02/20 06:30:16;;;;;;;10.63;4.73;;;;;;;-145.69;100.00;52614.72;5137543;27;20200;-85
2023/02/20 06:32:42;;;;;;;19.03;4.93;;;;;;;-145.69;100.00;52579.06;5138251;27;20197;-85
2023/02/20 06:35:09;;;;;;;13.83;4.83;;;;;;;-145.69;100.00;52567.16;5137475;27;20205;-85
2023/02/20 06:37:36;;;;;;;18.30;4.80;;;;;;;-145.69;100.00;52571.13;5137033;27;20192;-84
2023/02/20 06:40:05;;;;;;;13.23;4.60;;;;;;;-145.69;100.00;52600.84;5137055;27;20201;-84
2023/02/20 06:42:32;;;;;;;21.60;4.47;;;;;;;-145.69;100.00;52571.13;5136949;27;20225;-84
2023/02/20 06:44:58;;;;;;;15.03;4.73;;;;;;;-145.69;100.00;52551.31;5137011;27;20279;-84
2023/02/20 06:47:25;;;;;;;11.00;4.67;;;;;;;-145.69;100.00;52583.00;5137581;27;20208;-84
2023/02/20 06:49:51;;;;;;;16.20;4.53;;;;;;;-145.69;100.00;52561.22;5132905;27;20603;-84
2023/02/20 06:52:18;;;;;;;16.40;4.27;;;;;;;-145.69;100.00;52590.94;5137957;27;20223;-84
2023/02/20 06:54:45;;;;;;;18.23;3.50;;;;;;;-145.69;100.00;52588.97;5137892;27;20196;-84
2023/02/20 06:57:15;;;;;;;15.13;4.20;;;;;;;-145.69;100.00;52571.13;5135242;27;20299;-84
2023/02/20 06:59:49;;;;;;;12.80;4.40;;;;;;;-145.69;100.00;52563.22;5137173;27;20308;-84
2023/02/20 07:02:16;;;;;;;14.80;4.17;;;;;;;-145.69;100.00;52569.16;5136613;27;20683;-84
2023/02/20 07:04:48;;;;;;;11.67;4.17;;;;;;;-145.69;100.00;52573.13;5136179;27;20691;-84
2023/02/20 07:07:18;;;;;;;11.37;4.23;;;;;;;-145.69;100.00;52559.25;5136416;27;20196;-84
2023/02/20 07:09:44;;;;;;;14.03;4.40;;;;;;;-145.69;100.00;52571.13;5135965;27;20287;-84
2023/02/20 07:12:13;;;;;;;17.33;4.57;;;;;;;-145.69;100.00;52535.47;5136216;27;20277;-83
2023/02/20 07:14:41;;;;;;;10.60;3.50;;;;;;;-145.69;100.00;52598.84;5136332;27;20719;-84
2023/02/20 07:17:10;;;;;;;9.93;3.57;;;;;;;-145.69;100.00;52571.13;5136196;27;20265;-84
2023/02/20 07:19:52;;;;;;;11.90;3.70;;;;;;;-145.69;100.00;52539.44;5136047;27;20204;-85
2023/02/20 07:22:21;;;;;;;8.37;3.43;;;;;;;-145.69;100.00;52569.16;5136242;27;20220;-84
2023/02/20 07:24:53;;;;;;;14.00;3.50;;;;;;;-145.69;100.00;52561.22;5136425;27;20205;-84
2023/02/20 07:27:26;;;;;;;7.80;3.17;;;;;;;-145.69;100.00;52545.38;5136558;27;20200;-84
2023/02/20 07:30:00;;;;;;;13.37;3.63;;;;;;;-145.69;100.00;52545.38;5135283;27;20200;-84
2023/02/20 07:32:27;;;;;;;8.87;3.17;;;;;;;-145.69;100.00;52579.06;5135321;27;20493;-84
2023/02/20 07:34:53;;;;;;;13.00;2.77;;;;;;;-145.69;100.00;52592.91;5135592;27;20200;-83
2023/02/20 07:37:20;;;;;;;7.53;3.17;;;;;;;-145.69;100.00;52569.16;5135639;27;20227;-83
2023/02/20 07:39:46;;;;;;;7.30;2.50;;;;;;;-145.69;100.00;52543.41;5135521;27;20197;-83
2023/02/20 07:42:12;;;;;;;13.47;3.40;;;;;;;-145.69;100.00;52583.00;5135076;27;20304;-83
2023/02/20 07:44:39;;;;;;;10.43;3.47;;;;;;;-145.69;100.00;52531.53;5135816;27;20201;-84
2023/02/20 07:47:07;;;;;;;6.33;2.97;;;;;;;-145.69;100.00;52569.16;5135198;27;20200;-83
2023/02/20 07:49:33;;;;;;;5.33;2.40;;;;;;;-145.69;100.00;52543.41;5135555;27;20197;-84
2023/02/20 07:52:00;;;;;;;6.23;2.70;;;;;;;-145.69;100.00;52573.13;5136025;27;20213;-84
2023/02/20 07:54:27;;;;;;;7.87;2.47;;;;;;;-145.69;100.00;52575.09;5135517;27;20655;-84
2023/02/20 07:56:54;;;;;;;5.07;2.20;;;;;;;-145.69;100.00;52563.22;5135983;27;20200;-85
2023/02/20 07:59:21;;;;;;;6.40;2.50;;;;;;;-145.69;100.00;52553.31;5135385;27;20197;-84
2023/02/20 08:01:47;;;;;;;5.73;2.57;;;;;;;-145.69;100.00;52547.38;5135102;27;20236;-86
2023/02/20 08:04:15;;;;;;;7.47;2.63;;;;;;;-145.69;100.00;52549.34;5135331;27;20239;-85
2023/02/20 08:06:42;;;;;;;9.10;2.53;;;;;;;-145.69;100.00;52559.25;5134388;27;20200;-85
2023/02/20 08:09:08;;;;;;;5.23;2.83;;;;;;;-145.69;100.00;52559.25;5134779;27;20211;-85
2023/02/20 08:11:36;;;;;;;7.47;3.30;;;;;;;-145.69;100.00;52585.00;5135115;27;20675;-85
2023/02/20 08:14:03;;;;;;;9.30;2.73;;;;;;;-145.69;100.00;52559.25;5135059;27;20678;-78
2023/02/20 08:16:30;;;;;;;5.70;2.80;;;;;;;-145.69;100.00;52557.28;5134671;27;20200;-86
2023/02/20 08:18:56;;;;;;;6.63;3.43;;;;;;;-145.69;100.00;52565.19;5135749;27;20204;-87
2023/02/20 08:21:24;;;;;;;13.07;3.50;;;;;;;-145.69;100.00;52569.16;5136051;27;20226;-85
2023/02/20 08:23:51;;;;;;;8.30;3.20;;;;;;;-145.69;100.00;52521.63;5135000;27;20282;-85
2023/02/20 08:26:17;;;;;;;14.43;3.20;;;;;;;-145.69;100.00;52555.28;5134265;27;20192;-85
2023/02/20 08:28:46;;;;;;;8.33;3.30;;;;;;;-145.69;100.00;52539.44;5134745;27;20673;-85
2023/02/20 08:31:12;;;;;;;8.37;3.37;;;;;;;-145.69;100.00;52579.06;5135535;27;20571;-85
2023/02/20 08:33:39;;;;;;;10.07;3.50;;;;;;;-145.69;100.00;52551.31;5136562;27;20211;-83
2023/02/20 08:36:06;;;;;;;7.63;2.90;;;;;;;-145.69;100.00;52545.38;5136102;27;20320;-85
2023/02/20 08:38:36;;;;;;;8.67;2.93;;;;;;;-145.69;100.00;52539.44;5138229;27;20204;-85
2023/02/20 08:41:04;;;;;;;6.37;2.90;;;;;;;-145.69;100.00;52503.81;5124221;27;20201;-86
2023/02/20 08:43:30;;;;;;;6.43;2.77;;;;;;;-145.69;100.00;52543.41;5118082;28;20201;-85
2023/02/20 08:45:57;;;;;;;6.33;2.57;;;;;;;-145.69;100.00;52515.69;5121954;27;20193;-86
2023/02/20 08:48:23;;;;;;;5.57;2.53;;;;;;;-145.69;100.00;52541.44;5138675;27;20651;-85
2023/02/20 08:50:56;;;;;;;6.73;2.60;;;;;;;-145.69;100.00;52511.72;5136601;27;20193;-85
2023/02/20 08:53:23;;;;;;;4.23;2.20;;;;;;;-145.69;100.00;52499.84;5134468;27;20674;-82
2023/02/20 08:55:54;;;;;;;6.33;2.37;;;;;;;-145.69;100.00;52517.66;5135778;27;20245;-83
2023/02/20 08:58:21;;;;;;;5.23;2.10;;;;;;;-145.69;100.00;52547.38;5136945;27;20200;-85
2023/02/20 09:00:50;;;;;;;7.77;2.00;;;;;;;-145.69;100.00;52525.59;5137307;27;20201;-80
2023/02/20 09:03:26;;;;;;;5.13;1.70;;;;;;;-145.69;100.00;52545.38;5133554;27;20231;-81
2023/02/20 09:05:52;;;;;;;4.40;1.70;;;;;;;-145.69;100.00;52539.44;5135779;27;20658;-83
2023/02/20 09:08:30;;;;;;;4.03;1.50;;;;;;;-145.69;100.00;52523.59;5135556;27;20287;-83
2023/02/20 09:11:04;;;;;;;3.63;1.60;;;;;;;-145.69;100.00;52535.47;5135319;27;20717;-84
2023/02/20 09:13:33;;;;;;;3.60;1.67;;;;;;;-145.69;100.00;52547.38;5134877;27;20653;-84
2023/02/20 09:16:00;;;;;;;4.10;1.70;;;;;;;-145.69;100.00;52515.69;5134730;27;20644;-87
2023/02/20 09:18:26;;;;;;;2.17;1.23;;;;;;;-145.69;100.00;52468.16;5134419;27;20292;-88
2023/02/20 09:20:53;;;;;;;7.70;1.63;;;;;;;-145.69;95.38;52507.75;5137907;27;20196;-86
2023/02/20 09:23:23;;;;;;;5.90;1.87;;;;;;;-145.69;92.13;52480.03;5139935;27;20227;-83
2023/02/20 09:25:50;;;;;;;3.33;1.20;;;;;;;-145.69;94.79;52448.34;5139293;27;20209;-85
2023/02/20 09:28:21;;;;;;;3.53;1.20;;;;;;;-145.69;98.38;52472.13;5139402;27;20196;-84
2023/02/20 09:30:56;;;;;;;3.33;1.00;;;;;;;-145.69;92.03;52491.91;5117445;28;20197;-85
2023/02/20 09:33:23;;;;;;;4.27;1.20;;;;;;;-145.69;86.89;52503.81;5117302;28;20292;-83
2023/02/20 09:35:50;;;;;;;6.53;1.23;;;;;;;-145.69;83.31;52499.84;5117229;28;20204;-84
2023/02/20 09:38:17;;;;;;;6.40;1.87;;;;;;;-145.69;90.71;52460.22;5116060;28;20193;-84
2023/02/20 09:40:46;;;;;;;2.73;1.20;;;;;;;-145.69;78.40;52501.81;5117472;28;20201;-84
2023/02/20 09:43:25;;;;;;;2.93;1.10;;;;;;;-145.69;76.31;52464.19;5116872;28;20229;-84
2023/02/20 09:45:59;;;;;;;4.53;1.40;;;;;;;-145.69;79.95;52432.50;5119423;27;20228;-83
2023/02/20 09:48:47;;;;;;;1.67;1.10;;;;;;;-145.69;85.24;52484.00;5139030;27;20199;-84
2023/02/20 09:51:16;;;;;;;1.73;0.93;;;;;;;-145.69;79.15;52460.22;5137455;27;20228;-84
2023/02/20 09:53:54;;;;;;;2.30;1.10;;;;;;;-145.69;73.98;52491.91;5137378;27;20201;-82
2023/02/20 09:56:24;;;;;;;4.63;0.90;;;;;;;-145.69;71.66;52460.22;5138035;27;20555;-85
2023/02/20 09:58:59;;;;;;;5.00;1.20;;;;;;;-145.69;73.16;52515.69;5137598;27;20620;-83
2023/02/20 10:01:26;;;;;;;2.60;1.03;;;;;;;-145.69;74.41;52499.84;5137156;27;20207;-82
2023/02/20 10:03:56;;;;;;;2.57;1.00;;;;;;;-145.69;75.77;52478.06;5136557;27;20233;-83
2023/02/20 10:06:25;;;;;;;4.37;1.20;;;;;;;-145.69;76.58;52432.50;5137336;27;20250;-82
2023/02/20 10:08:52;;;;;;;6.60;1.27;;;;;;;-145.69;74.44;52487.97;5136679;27;20203;-82
2023/02/20 10:11:27;;;;;;;1.23;1.00;;;;;;;-145.69;77.05;52464.19;5136792;27;20203;-82
2023/02/20 10:14:08;;;;;;;3.57;0.93;;;;;;;-145.69;79.24;52444.38;5136961;27;20196;-81
2023/02/20 10:16:42;;;;;;;6.43;0.93;;;;;;;-145.69;76.44;52478.06;5136537;27;20188;-82
2023/02/20 10:19:18;;;;;;;3.20;1.03;;;;;;;-145.69;73.66;52468.16;5136771;27;20215;-81
2023/02/20 10:21:59;;;;;;;2.87;1.07;;;;;;;-145.69;69.51;52470.13;5136606;27;20230;-82
2023/02/20 10:24:41;;;;;;;5.83;1.10;;;;;;;-145.69;74.17;52448.34;5136313;27;20570;-82
2023/02/20 10:27:22;;;;;;;2.70;1.00;;;;;;;-145.69;66.61;52462.22;5136746;27;20204;-83
2023/02/20 10:29:52;;;;;;;2.03;1.00;;;;;;;-145.69;63.87;52454.28;5136514;27;20207;-81
2023/02/20 10:32:23;;;;;;;2.60;0.80;;;;;;;-145.69;66.87;52452.31;5136299;27;20269;-85
2023/02/20 10:34:57;;;;;;;3.77;1.40;;;;;;;-145.69;61.19;52440.44;5136897;27;20674;-85
2023/02/20 10:37:27;;;;;;;2.40;1.00;;;;;;;-145.69;59.58;52424.59;5136675;27;20208;-84
2023/02/20 10:40:03;;;;;;;2.03;1.10;;;;;;;-145.69;57.70;52446.38;5136689;27;20391;-82
2023/02/20 10:42:33;;;;;;;2.07;1.00;;;;;;;-145.69;56.28;52456.28;5136268;27;20224;-83
2023/02/20 10:45:05;;;;;;;2.63;1.20;;;;;;;-145.69;57.66;52448.34;5136677;27;20200;-81
2023/02/20 10:47:52;;;;;;;4.70;1.30;;;;;;;-145.69;54.95;52426.56;5132617;27;20201;-82
2023/02/20 10:50:23;;;;;;;2.33;1.00;;;;;;;-145.69;51.55;52468.16;5136135;27;20208;-81
2023/02/20 10:52:55;;;;;;;7.43;1.20;;;;;;;-145.69;50.14;52418.63;5136269;27;20208;-82
2023/02/20 10:55:26;;;;;;;3.13;0.93;;;;;;;-145.69;49.90;52412.69;5135810;27;20549;-82
2023/02/20 10:58:00;;;;;;;4.07;1.03;;;;;;;-145.69;50.61;52440.44;5136427;27;20212;-83
2023/02/20 11:00:33;;;;;;;1.83;0.90;;;;;;;-145.69;50.81;52416.66;5137285;27;20201;-88
2023/02/20 11:03:07;;;;;;;5.83;1.40;;;;;;;-145.69;53.86;52426.56;5137626;27;20227;-87
2023/02/20 11:05:41;;;;;;;3.73;1.10;;;;;;;-145.69;53.95;52414.69;5137285;27;20196;-86
2023/02/20 11:08:08;;;;;;;4.87;1.10;;;;;;;-145.69;54.87;52495.88;5137315;27;20200;-87
2023/02/20 11:10:37;;;;;;;2.67;0.87;;;;;;;-145.69;53.00;52422.59;5137520;27;20205;-86
2023/02/20 11:13:06;;;;;;;5.50;1.30;;;;;;;-145.69;54.68;52420.63;5137401;27;20197;-88
2023/02/20 11:15:38;;;;;;;3.83;1.13;;;;;;;-145.69;53.19;52428.53;5136980;27;20197;-88
2023/02/20 11:18:11;;;;;;;5.90;1.37;;;;;;;-145.69;52.34;52398.84;5136584;27;20257;-87
2023/02/20 11:20:45;;;;;;;2.43;1.10;;;;;;;-145.69;55.49;52440.44;5137033;27;20283;-87
2023/02/20 11:23:34;;;;;;;1.57;1.00;;;;;;;-145.69;51.87;52432.50;5137348;27;20221;-88
2023/02/20 11:26:15;;;;;;;3.33;1.13;;;;;;;-145.69;52.26;52432.50;5137030;27;20607;-87
2023/02/20 11:28:42;;;;;;;3.50;1.10;;;;;;;-145.69;53.36;52414.69;5136190;27;20205;-87
2023/02/20 11:31:11;;;;;;;3.42;1.25;;;;;;;-145.69;52.68;52404.78;5137174;27;20209;-87
2023/02/20 11:33:46;;;;;;;2.08;1.00;;;;;;;-145.69;53.32;52412.69;5137062;27;20207;-89
2023/02/20 11:36:17;;;;;;;4.03;1.00;;;;;;;-145.69;54.96;52365.16;5136553;27;20196;-88
2023/02/20 11:38:45;;;;;;;2.50;1.15;;;;;;;-145.69;51.58;52392.91;5136349;27;20262;-87